Time;durP1;ratioP1;P1;durP2;ratioP2;P2;SDS_P1;SDS_P2;PMS_P1;PMS_P2;Temp;Humidity;BMP_temperature;BMP_pressure;BME280_temperature;BME280_humidity;BME280_pressure;Samples;Min_cycle;Max_cycle;Signal;HPM_P1;HPM_P2
2022/03/31 00:01:18;;;;;;;26.67;20.48;;;;;;;;;;4990856;28;20469;-80
2022/03/31 00:03:43;;;;;;;27.97;18.27;;;;;;;3.92;96.79;67214.78;4985723;28;20046;-79
2022/03/31 00:06:09;;;;;;;27.08;21.45;;;;;;;;;;4985553;28;20281;-77
2022/03/31 00:08:34;;;;;;;28.27;16.42;;;;;;;3.87;96.90;67205.94;4987104;28;20042;-77
2022/03/31 00:10:59;;;;;;;27.70;19.70;;;;;;;3.86;96.90;67205.38;4986621;28;20047;-78
2022/03/31 00:13:29;;;;;;;30.17;20.38;;;;;;;3.82;96.69;67203.47;4987049;28;20050;-78
2022/03/31 00:15:56;;;;;;;25.92;19.20;;;;;;;3.83;97.31;67205.19;4985067;28;20069;-79
2022/03/31 00:18:22;;;;;;;27.73;19.92;;;;;;;3.73;97.59;67193.91;4986827;28;20046;-75
2022/03/31 00:20:47;;;;;;;29.73;21.20;;;;;;;3.71;98.09;67191.66;4969430;28;20052;-78
2022/03/31 00:23:13;;;;;;;29.70;20.75;;;;;;;3.63;98.31;67182.63;4969152;28;20449;-77
2022/03/31 00:25:39;;;;;;;29.40;19.92;;;;;;;3.62;98.53;67181.47;4985362;28;20046;-77
2022/03/31 00:28:04;;;;;;;25.52;16.70;;;;;;;3.57;98.98;67173.22;4968293;28;20042;-77
2022/03/31 00:30:30;;;;;;;25.83;17.50;;;;;;;3.56;98.97;67174.72;4991950;28;20489;-77
2022/03/31 00:32:57;;;;;;;26.98;18.38;;;;;;;3.52;99.10;67170.22;4986453;28;20046;-78
2022/03/31 00:35:23;;;;;;;24.63;17.88;;;;;;;3.53;99.74;67173.97;4986029;28;20101;-75
2022/03/31 00:37:48;;;;;;;28.70;17.50;;;;;;;3.50;100.00;67165.31;4985797;28;20038;-77
2022/03/31 00:40:18;;;;;;;25.63;18.67;;;;;;;3.48;99.90;67163.63;4986033;28;20058;-78
2022/03/31 00:42:49;;;;;;;24.45;16.75;;;;;;;3.45;100.00;67162.88;4983766;28;20180;-76
2022/03/31 00:45:25;;;;;;;25.55;17.42;;;;;;;3.46;100.00;67163.44;4986751;28;20038;-78
2022/03/31 00:47:52;;;;;;;24.75;16.27;;;;;;;3.44;100.00;67161.19;4986161;28;20050;-77
2022/03/31 00:50:18;;;;;;;22.73;16.50;;;;;;;3.45;100.00;67165.50;4986502;28;20046;-77
2022/03/31 00:52:44;;;;;;;23.20;14.93;;;;;;;3.43;100.00;67160.63;4986218;28;20494;-76
2022/03/31 00:55:12;;;;;;;23.27;16.73;;;;;;;3.42;100.00;67158.94;4987683;28;20047;-79
2022/03/31 00:57:38;;;;;;;23.67;14.00;;;;;;;3.32;100.00;67145.59;4985664;28;20121;-76
2022/03/31 01:00:07;;;;;;;21.55;13.02;;;;;;;3.35;100.00;67152.16;4985784;28;20058;-77
2022/03/31 01:02:33;;;;;;;22.20;14.23;;;;;;;;;;4987278;28;20038;-78
2022/03/31 01:05:02;;;;;;;20.95;14.02;;;;;;;3.36;100.00;67155.91;4989526;28;20113;-78
2022/03/31 01:07:28;;;;;;;21.05;12.82;;;;;;;3.35;100.00;67152.16;4989277;28;20081;-79
2022/03/31 01:09:57;;;;;;;18.88;12.63;;;;;;;3.34;100.00;67147.84;4962996;28;20042;-79
2022/03/31 01:12:22;;;;;;;19.90;11.18;;;;;;;;;;4988642;28;20096;-77
2022/03/31 01:15:05;;;;;;;18.35;11.20;;;;;;;3.25;100.00;67138.25;4980119;28;20042;-77
2022/03/31 01:17:31;;;;;;;17.95;11.98;;;;;;;3.29;100.00;67144.84;4967806;28;20402;-77
2022/03/31 01:19:56;;;;;;;19.85;12.88;;;;;;;3.29;100.00;67148.03;4990937;28;20081;-76
2022/03/31 01:22:24;;;;;;;19.42;12.43;;;;;;;3.25;100.00;67143.53;4991078;28;20047;-78
2022/03/31 01:24:51;;;;;;;19.35;12.65;;;;;;;3.25;100.00;67137.69;4987825;28;20046;-77
2022/03/31 01:27:16;;;;;;;21.55;13.50;;;;;;;;;;4972877;28;20142;-76
2022/03/31 01:29:41;;;;;;;19.35;13.73;;;;;;;3.22;100.00;67139.56;4991019;28;20492;-75
2022/03/31 01:32:07;;;;;;;19.15;13.35;;;;;;;3.22;100.00;67137.50;4992628;28;20053;-75
2022/03/31 01:34:32;;;;;;;18.55;10.75;;;;;;;3.21;100.00;67136.38;4991855;28;20053;-77
2022/03/31 01:36:58;;;;;;;19.58;12.65;;;;;;;3.19;100.00;67131.47;4989648;28;20070;-78
2022/03/31 01:39:23;;;;;;;17.40;11.00;;;;;;;3.19;100.00;67131.47;4990749;28;20050;-77
2022/03/31 01:41:48;;;;;;;14.63;10.35;;;;;;;3.20;100.00;67132.63;4988765;28;20051;-78
2022/03/31 01:44:13;;;;;;;16.23;11.35;;;;;;;3.21;100.00;67139.00;4989104;28;20074;-77
2022/03/31 01:46:39;;;;;;;18.52;11.77;;;;;;;3.17;100.00;67131.88;4990037;28;20074;-78
2022/03/31 01:49:04;;;;;;;16.30;10.55;;;;;;;3.17;100.00;67129.81;4988405;28;20055;-78
2022/03/31 01:51:29;;;;;;;16.73;10.40;;;;;;;3.18;100.00;67133.00;4991282;28;20038;-76
2022/03/31 01:53:55;;;;;;;19.15;11.75;;;;;;;3.19;100.00;67133.56;4991467;28;20482;-77
2022/03/31 01:56:20;;;;;;;15.88;10.25;;;;;;;3.18;100.00;67133.00;4988604;28;20716;-76
2022/03/31 01:58:46;;;;;;;14.55;11.02;;;;;;;3.14;100.00;67128.50;4964691;28;20545;-76
2022/03/31 02:01:13;;;;;;;20.25;11.82;;;;;;;3.17;100.00;67131.88;4990410;28;20122;-79
2022/03/31 02:03:38;;;;;;;18.20;11.35;;;;;;;3.21;100.00;67139.00;4972692;28;20129;-76
2022/03/31 02:06:04;;;;;;;16.02;10.30;;;;;;;3.18;100.00;67130.34;4970950;28;20499;-77
2022/03/31 02:08:29;;;;;;;16.60;11.00;;;;;;;3.19;100.00;67130.91;4990396;28;20503;-77
2022/03/31 02:10:54;;;;;;;18.52;12.23;;;;;;;3.21;100.00;67133.19;4988028;28;20157;-78
2022/03/31 02:13:20;;;;;;;17.92;12.15;;;;;;;3.21;100.00;67133.75;4988678;28;20038;-77
2022/03/31 02:15:45;;;;;;;17.83;12.77;;;;;;;3.18;100.00;67133.00;4988221;28;20034;-77
2022/03/31 02:18:11;;;;;;;17.98;13.02;;;;;;;3.21;100.00;67133.19;4971990;28;20046;-77
2022/03/31 02:20:36;;;;;;;20.42;12.85;;;;;;;3.20;100.00;67134.69;4988340;28;20042;-77
2022/03/31 02:23:02;;;;;;;17.02;12.77;;;;;;;3.20;100.00;67137.88;4965802;28;20046;-78
2022/03/31 02:25:28;;;;;;;20.35;14.60;;;;;;;3.23;100.00;67135.44;4989655;28;20054;-78
2022/03/31 02:27:54;;;;;;;20.05;12.70;;;;;;;3.27;100.00;67139.94;4988465;28;20042;-78
2022/03/31 02:30:22;;;;;;;18.27;12.63;;;;;;;3.28;100.00;67146.91;4992806;28;20498;-78
2022/03/31 02:32:47;;;;;;;20.38;14.75;;;;;;;;;;4988391;28;20054;-76
2022/03/31 02:35:12;;;;;;;15.10;9.65;;;;;;;3.21;100.00;67135.81;4989167;28;20047;-78
2022/03/31 02:37:38;;;;;;;24.35;18.25;;;;;;;3.24;100.00;67139.75;4990319;28;20098;-78
2022/03/31 02:40:05;;;;;;;23.65;16.05;;;;;;;3.19;100.00;67136.75;4988499;28;29768;-76
2022/03/31 02:42:31;;;;;;;22.80;15.20;;;;;;;3.22;100.00;67134.88;4988926;28;20073;-77
2022/03/31 02:44:57;;;;;;;25.17;17.45;;;;;;;3.22;100.00;67134.31;4971991;28;20078;-77
2022/03/31 02:47:23;;;;;;;23.35;14.77;;;;;;;3.20;100.00;67132.63;4987977;28;20484;-78
2022/03/31 02:49:48;;;;;;;23.73;17.30;;;;;;;3.25;100.00;67143.53;4986016;28;20069;-76
2022/03/31 02:52:13;;;;;;;23.05;15.45;;;;;;;3.25;100.00;67137.69;4971171;28;20449;-77
2022/03/31 02:57:23;;;;;;;25.33;15.00;;;;;;;3.22;100.00;67140.13;4985154;28;20068;-78
2022/03/31 02:59:48;;;;;;;24.65;18.67;;;;;;;;;;4965337;28;20678;-75
2022/03/31 03:02:13;;;;;;;26.58;17.88;;;;;;;3.26;100.00;67144.66;4988668;28;20501;-78
2022/03/31 03:04:39;;;;;;;25.92;15.88;;;;;;;3.25;100.00;67140.31;4988380;28;20050;-78
2022/03/31 03:07:05;;;;;;;23.38;17.67;;;;;;;3.24;100.00;67142.38;4961946;28;20074;-78
2022/03/31 03:09:31;;;;;;;27.60;18.67;;;;;;;3.20;100.00;67132.63;4989003;28;20085;-77
2022/03/31 03:11:57;;;;;;;22.25;15.57;;;;;;;3.27;100.00;67145.75;4987386;28;20417;-76
2022/03/31 03:14:22;;;;;;;24.75;15.98;;;;;;;3.27;100.00;67143.13;4988031;28;20174;-77
2022/03/31 03:16:48;;;;;;;24.23;17.30;;;;;;;3.24;100.00;67142.38;4989127;28;20066;-78
2022/03/31 03:19:13;;;;;;;24.58;15.65;;;;;;;3.21;100.00;67133.75;4987701;28;20080;-78
2022/03/31 03:21:39;;;;;;;23.55;18.33;;;;;;;3.23;100.00;67141.25;4992458;28;20049;-76
2022/03/31 03:24:05;;;;;;;22.92;13.25;;;;;;;3.20;100.00;67137.88;4987454;28;20145;-79
2022/03/31 03:26:31;;;;;;;25.95;17.27;;;;;;;3.30;100.00;67148.59;4983629;28;20093;-78
2022/03/31 03:28:56;;;;;;;27.88;17.90;;;;;;;3.33;100.00;67152.53;4988335;28;20096;-78
2022/03/31 03:31:22;;;;;;;27.40;17.42;;;;;;;3.34;100.00;67148.41;4971097;28;20489;-79
2022/03/31 03:33:47;;;;;;;25.45;18.25;;;;;;;;;;4986112;28;20068;-76
2022/03/31 03:36:19;;;;;;;30.67;20.27;;;;;;;;;;4983934;28;20112;-78
2022/03/31 03:38:44;;;;;;;29.52;19.73;;;;;;;3.28;100.00;67146.91;4986472;28;20057;-77
2022/03/31 03:41:12;;;;;;;31.67;20.90;;;;;;;3.31;100.00;67147.06;4985672;28;20046;-78
2022/03/31 03:43:40;;;;;;;27.65;18.67;;;;;;;3.34;100.00;67147.84;4987463;28;20480;-77
2022/03/31 03:46:06;;;;;;;30.17;20.15;;;;;;;3.33;100.00;67146.72;4968792;28;20046;-76
2022/03/31 03:48:32;;;;;;;29.27;17.98;;;;;;;;;;4988263;28;20054;-76
2022/03/31 03:50:58;;;;;;;20.95;11.57;;;;;;;3.24;100.00;67142.38;4986052;28;20046;-78
2022/03/31 03:53:23;;;;;;;29.35;17.13;;;;;;;3.27;100.00;67140.50;4970814;28;20046;-78
2022/03/31 03:55:49;;;;;;;32.33;21.35;;;;;;;3.27;100.00;67140.50;4988093;28;20073;-77
2022/03/31 03:58:15;;;;;;;34.40;22.40;;;;;;;3.28;100.00;67144.28;4989138;28;20046;-77
2022/03/31 04:00:40;;;;;;;33.35;20.25;;;;;;;3.24;100.00;67139.19;4988179;28;20428;-77
2022/03/31 04:03:06;;;;;;;32.78;22.65;;;;;;;3.21;100.00;67139.00;4987848;28;20053;-77
2022/03/31 04:05:31;;;;;;;32.58;19.15;;;;;;;3.21;100.00;67139.00;4990602;28;20045;-77
2022/03/31 04:07:57;;;;;;;37.30;23.05;;;;;;;;;;4989922;28;20533;-78
2022/03/31 04:10:22;;;;;;;32.00;24.77;;;;;;;3.24;100.00;67139.75;4985708;28;20387;-77
2022/03/31 04:12:49;;;;;;;31.73;21.52;;;;;;;3.20;100.00;67132.63;4985940;28;20114;-76
2022/03/31 04:15:14;;;;;;;32.35;20.95;;;;;;;3.22;100.00;67137.50;4988996;28;20042;-78
2022/03/31 04:17:40;;;;;;;34.17;22.40;;;;;;;3.24;100.00;67142.38;4987631;28;20049;-78
2022/03/31 04:20:06;;;;;;;28.20;18.98;;;;;;;3.24;100.00;67139.75;4985513;28;20052;-75
2022/03/31 04:22:37;;;;;;;38.28;23.52;;;;;;;3.24;100.00;67137.13;4986519;28;20152;-77
2022/03/31 04:25:04;;;;;;;32.60;22.45;;;;;;;3.23;100.00;67141.25;4985236;28;20715;-76
2022/03/31 04:27:29;;;;;;;30.77;20.33;;;;;;;3.19;100.00;67131.47;4986940;28;20098;-76
2022/03/31 04:29:55;;;;;;;30.95;19.85;;;;;;;3.21;100.00;67133.19;4989240;28;20093;-76
2022/03/31 04:32:20;;;;;;;29.52;21.50;;;;;;;3.22;100.00;67140.13;4967686;28;20482;-77
2022/03/31 04:34:45;;;;;;;31.27;21.88;;;;;;;;;;4989089;28;20038;-77
2022/03/31 04:37:10;;;;;;;30.98;21.48;;;;;;;3.22;100.00;67136.94;4990908;28;20050;-78
2022/03/31 04:39:36;;;;;;;32.70;21.73;;;;;;;3.20;100.00;67135.25;4972131;28;20080;-77
2022/03/31 04:42:02;;;;;;;33.63;19.20;;;;;;;3.18;100.00;67133.00;4989565;28;20037;-76
2022/03/31 04:44:28;;;;;;;33.30;23.77;;;;;;;3.22;100.00;67136.94;4973282;28;20054;-76
2022/03/31 04:46:54;;;;;;;32.70;21.48;;;;;;;3.23;100.00;67130.75;4989752;28;20034;-75
2022/03/31 04:49:19;;;;;;;33.35;21.02;;;;;;;3.28;100.00;67144.28;4991058;28;20050;-77
2022/03/31 04:51:45;;;;;;;34.10;23.85;;;;;;;3.28;100.00;67146.91;4989980;28;20560;-78
2022/03/31 04:54:10;;;;;;;32.22;23.40;;;;;;;3.28;100.00;67144.28;4990344;28;20050;-76
2022/03/31 04:56:35;;;;;;;34.58;21.38;;;;;;;3.27;100.00;67139.94;4990070;28;20605;-77
2022/03/31 04:59:01;;;;;;;30.33;17.55;;;;;;;3.26;100.00;67144.09;4989530;28;20399;-76
2022/03/31 05:01:26;;;;;;;33.80;23.45;;;;;;;3.24;100.00;67137.13;4991750;28;20054;-77
2022/03/31 05:03:55;;;;;;;34.58;24.67;;;;;;;3.25;100.00;67140.31;4983793;28;20129;-77
2022/03/31 05:06:22;;;;;;;39.50;24.83;;;;;;;3.25;100.00;67138.25;4992858;28;20042;-77
2022/03/31 05:08:48;;;;;;;28.60;16.10;;;;;;;3.13;100.00;67125.28;4977548;28;20052;-77
2022/03/31 05:11:13;;;;;;;32.40;21.63;;;;;;;3.22;100.00;67134.31;4990474;28;20102;-77
2022/03/31 05:13:38;;;;;;;25.92;15.32;;;;;;;3.14;100.00;67133.75;4992704;28;20126;-77
2022/03/31 05:16:05;;;;;;;38.03;24.52;;;;;;;3.18;100.00;67135.63;4992574;28;20170;-78
2022/03/31 05:18:30;;;;;;;36.53;23.40;;;;;;;3.17;100.00;67134.50;4992160;28;20038;-77
2022/03/31 05:20:56;;;;;;;33.80;22.85;;;;;;;;;;4995280;28;20045;-78
2022/03/31 05:23:21;;;;;;;39.13;24.88;;;;;;;3.18;100.00;67130.34;4978245;28;20074;-77
2022/03/31 05:25:47;;;;;;;39.08;24.58;;;;;;;3.19;100.00;67136.19;4993712;28;20103;-77
2022/03/31 05:28:13;;;;;;;36.17;22.85;;;;;;;3.18;100.00;67138.25;4996603;28;20093;-76
2022/03/31 05:30:38;;;;;;;34.67;25.40;;;;;;;3.20;100.00;67135.25;4979286;28;20449;-77
2022/03/31 05:33:04;;;;;;;36.70;25.77;;;;;;;;;;4994615;28;20050;-76
2022/03/31 05:35:30;;;;;;;35.42;23.75;;;;;;;;;;4976379;28;20453;-76
2022/03/31 05:41:19;;;;;;;39.92;27.27;;;;;;;3.16;100.00;67133.34;4989266;28;20085;-77
2022/03/31 05:43:45;;;;;;;41.47;26.02;;;;;;;3.15;100.00;67129.59;4995452;28;20042;-77
2022/03/31 05:46:10;;;;;;;37.58;25.83;;;;;;;3.18;100.00;67135.63;4977183;28;20052;-76
2022/03/31 05:48:38;;;;;;;40.63;26.73;;;;;;;3.16;100.00;67128.69;4976013;28;20121;-77
2022/03/31 05:51:04;;;;;;;39.47;27.13;;;;;;;3.17;100.00;67134.50;4976184;28;20034;-76
2022/03/31 05:53:29;;;;;;;41.47;26.98;;;;;;;3.16;100.00;67128.09;4993647;28;20034;-76
2022/03/31 05:55:54;;;;;;;30.27;17.67;;;;;;;3.13;100.00;67125.28;4989545;28;20135;-77
2022/03/31 05:58:20;;;;;;;34.50;22.25;;;;;;;3.10;100.00;67124.53;4974923;28;20582;-76
2022/03/31 06:00:45;;;;;;;28.60;17.50;;;;;;;3.04;100.00;67120.41;4992720;28;20038;-76
2022/03/31 06:03:10;;;;;;;38.47;23.33;;;;;;;3.12;100.00;67126.78;4988882;28;20417;-77
2022/03/31 06:05:36;;;;;;;42.75;27.02;;;;;;;3.13;100.00;67124.72;4990299;28;20042;-75
2022/03/31 06:08:01;;;;;;;40.70;28.25;;;;;;;3.19;100.00;67134.09;4973833;28;20121;-76
2022/03/31 06:10:26;;;;;;;33.20;18.00;;;;;;;3.09;100.00;67126.03;4990210;28;20038;-77
2022/03/31 06:12:54;;;;;;;43.58;24.45;;;;;;;3.16;100.00;67128.09;4982345;28;20572;-77
2022/03/31 06:15:19;;;;;;;35.08;18.77;;;;;;;3.14;100.00;67129.06;4990718;28;20052;-77
2022/03/31 06:17:46;;;;;;;34.42;20.20;;;;;;;3.14;100.00;67125.84;4989708;28;20049;-77
2022/03/31 06:20:12;;;;;;;36.15;19.77;;;;;;;3.14;100.00;67131.69;4987276;28;20062;-77
2022/03/31 06:22:38;;;;;;;42.42;28.83;;;;;;;3.19;100.00;67139.38;4987327;28;20035;-76
2022/03/31 06:25:06;;;;;;;47.50;31.58;;;;;;;3.27;100.00;67140.50;4988426;28;20044;-75
2022/03/31 06:27:33;;;;;;;43.37;29.90;;;;;;;3.26;100.00;67139.38;4984286;28;20042;-77
2022/03/31 06:29:58;;;;;;;41.63;28.00;;;;;;;3.25;100.00;67137.69;4988141;28;20156;-77
2022/03/31 06:32:24;;;;;;;43.35;30.55;;;;;;;;;;4988594;28;20038;-77
2022/03/31 06:34:49;;;;;;;40.58;26.98;;;;;;;3.25;100.00;67137.69;4988461;28;20046;-77
2022/03/31 06:37:15;;;;;;;47.13;32.65;;;;;;;3.31;100.00;67150.28;4986651;28;20061;-77
2022/03/31 06:39:40;;;;;;;46.95;30.92;;;;;;;3.30;100.00;67146.53;4970211;28;20086;-77
2022/03/31 06:42:06;;;;;;;44.15;29.55;;;;;;;3.28;100.00;67146.91;4987092;28;20041;-77
2022/03/31 06:44:32;;;;;;;39.30;24.60;;;;;;;3.29;100.00;67142.78;4989018;28;20030;-76
2022/03/31 06:46:58;;;;;;;38.72;27.67;;;;;;;3.39;100.00;67156.69;4987232;28;20137;-77
2022/03/31 06:49:23;;;;;;;40.15;27.95;;;;;;;3.36;100.00;67153.28;4986383;28;20185;-76
2022/03/31 06:51:50;;;;;;;44.47;31.20;;;;;;;3.34;100.00;67147.84;4983900;28;20042;-76
2022/03/31 06:54:15;;;;;;;44.67;31.65;;;;;;;3.34;100.00;67153.66;4987825;28;20109;-76
2022/03/31 06:56:40;;;;;;;43.95;26.75;;;;;;;3.37;100.00;67154.41;4970705;28;20070;-77
2022/03/31 06:59:06;;;;;;;44.65;27.17;;;;;;;3.41;100.00;67155.19;4987864;28;20116;-76
2022/03/31 07:01:32;;;;;;;49.63;28.77;;;;;;;3.38;100.00;67155.53;4987959;28;20050;-77
2022/03/31 07:03:57;;;;;;;44.72;28.50;;;;;;;3.40;100.00;67154.63;4971428;28;20037;-77
2022/03/31 07:06:23;;;;;;;43.33;30.90;;;;;;;3.44;100.00;67158.56;4987819;28;20125;-77
2022/03/31 07:08:48;;;;;;;44.83;29.92;;;;;;;;;;4973019;28;20050;-77
2022/03/31 07:11:14;;;;;;;43.53;27.70;;;;;;;3.47;100.00;67167.19;4986469;28;20049;-77
2022/03/31 07:13:40;;;;;;;44.25;30.83;;;;;;;3.47;100.00;67162.50;4971055;28;20038;-77
2022/03/31 07:16:06;;;;;;;47.15;32.85;;;;;;;3.51;100.00;67167.03;4986273;28;20418;-76
2022/03/31 07:18:31;;;;;;;47.22;30.00;;;;;;;3.52;100.00;67173.41;4982884;28;20069;-77
2022/03/31 07:20:57;;;;;;;46.05;33.67;;;;;;;3.51;100.00;67167.03;4986661;28;20058;-77
2022/03/31 07:23:23;;;;;;;44.50;31.35;;;;;;;3.47;100.00;67161.94;4986917;28;20038;-76
2022/03/31 07:25:50;;;;;;;46.05;32.03;;;;;;;3.50;100.00;67168.50;4988034;28;20041;-77
2022/03/31 07:28:15;;;;;;;43.97;30.65;;;;;;;3.45;100.00;67162.31;4989305;28;20073;-77
2022/03/31 07:30:41;;;;;;;35.83;21.00;;;;;;;;;;4987562;28;20100;-76
2022/03/31 07:33:06;;;;;;;48.00;29.88;;;;;;;3.54;100.00;67173.03;4985500;28;20502;-77
2022/03/31 07:35:34;;;;;;;46.38;30.80;;;;;;;3.62;100.00;67181.47;4983928;28;20133;-77
2022/03/31 07:38:03;;;;;;;49.75;30.75;;;;;;;3.62;100.00;67181.47;4984932;28;20108;-76
2022/03/31 07:40:28;;;;;;;47.70;28.48;;;;;;;3.65;100.00;67184.88;4963396;28;20049;-77
2022/03/31 07:42:54;;;;;;;45.78;32.80;;;;;;;;;;4957934;28;20038;-77
2022/03/31 07:45:20;;;;;;;50.47;32.90;;;;;;;3.67;100.00;67187.13;4983691;28;20105;-76
2022/03/31 07:47:46;;;;;;;45.22;31.85;;;;;;;;;;4966430;28;20497;-77
2022/03/31 07:50:14;;;;;;;49.65;33.70;;;;;;;3.72;100.00;67192.22;4982465;28;20049;-76
2022/03/31 07:52:41;;;;;;;48.00;30.20;;;;;;;3.71;100.00;67189.03;4983536;28;20054;-76
2022/03/31 07:55:09;;;;;;;36.00;19.10;;;;;;;3.69;100.00;67186.19;4983732;28;20053;-77
2022/03/31 07:57:35;;;;;;;42.88;24.60;;;;;;;3.68;100.00;67190.88;4966213;28;20462;-77
2022/03/31 08:00:01;;;;;;;34.80;17.70;;;;;;;3.67;100.00;67183.94;4983107;28;20043;-77
2022/03/31 08:02:26;;;;;;;39.65;25.40;;;;;;;3.80;100.00;67201.81;4985023;28;20606;-77
2022/03/31 08:04:53;;;;;;;42.70;27.88;;;;;;;3.79;100.00;67200.66;4966686;28;20054;-76
2022/03/31 08:07:19;;;;;;;36.72;21.67;;;;;;;3.83;100.00;67205.19;4982970;28;20482;-77
2022/03/31 08:09:44;;;;;;;43.38;24.58;;;;;;;3.91;100.00;67210.44;4961550;28;20125;-76
2022/03/31 08:12:10;;;;;;;45.40;25.38;;;;;;;;;;4986166;28;20053;-76
2022/03/31 08:14:35;;;;;;;38.75;24.77;;;;;;;3.88;100.00;67207.63;4988611;28;20057;-77
2022/03/31 08:17:01;;;;;;;42.00;26.50;;;;;;;3.90;100.00;67214.59;4988088;28;20136;-77
2022/03/31 08:19:30;;;;;;;39.88;25.02;;;;;;;4.00;100.00;67223.81;4969817;28;20073;-76
2022/03/31 08:21:55;;;;;;;37.22;24.40;;;;;;;;;;4987684;28;20053;-76
2022/03/31 08:24:20;;;;;;;43.85;26.45;;;;;;;;;;4987854;28;20137;-77
2022/03/31 08:26:46;;;;;;;36.28;18.83;;;;;;;4.04;100.00;67230.38;4987149;28;20065;-77
2022/03/31 08:29:11;;;;;;;39.13;22.98;;;;;;;4.04;100.00;67228.31;4987413;28;20730;-77
2022/03/31 08:31:37;;;;;;;33.58;19.58;;;;;;;4.00;100.00;67225.84;4991343;28;20038;-76
2022/03/31 08:34:04;;;;;;;39.80;23.27;;;;;;;4.05;100.00;67228.88;4988220;28;20477;-76
2022/03/31 08:36:42;;;;;;;31.75;20.20;;;;;;;4.17;100.00;67244.47;4990877;28;20125;-77
2022/03/31 08:39:07;;;;;;;40.72;31.05;;;;;;;4.21;100.00;67243.75;4990864;28;20045;-77
2022/03/31 08:41:33;;;;;;;45.67;31.48;;;;;;;4.24;100.00;67252.41;4991760;28;20413;-77
2022/03/31 08:43:58;;;;;;;44.08;30.42;;;;;;;;;;4990708;28;20117;-77
2022/03/31 08:46:29;;;;;;;40.40;24.13;;;;;;;4.26;100.00;67254.66;4990895;28;20505;-76
2022/03/31 08:48:56;;;;;;;40.22;25.35;;;;;;;4.24;100.00;67249.75;4990975;28;20061;-77
2022/03/31 08:51:22;;;;;;;36.97;25.58;;;;;;;4.28;100.00;67254.84;4991141;28;20038;-76
2022/03/31 08:53:47;;;;;;;44.78;32.10;;;;;;;4.36;100.00;67262.75;4996532;28;20552;-76
2022/03/31 08:56:12;;;;;;;44.28;31.65;;;;;;;4.41;100.00;67266.31;4992420;28;20646;-76
2022/03/31 08:58:37;;;;;;;40.58;26.80;;;;;;;;;;4990876;28;20566;-77
2022/03/31 09:01:03;;;;;;;41.78;28.75;;;;;;;4.34;100.00;67261.03;4987945;28;20050;-77
2022/03/31 09:03:34;;;;;;;39.05;23.33;;;;;;;4.43;100.00;67273.84;4973726;28;20049;-77
2022/03/31 09:05:59;;;;;;;41.55;27.58;;;;;;;4.42;100.00;67270.06;4989268;28;20049;-77
2022/03/31 09:08:24;;;;;;;38.90;22.98;;;;;;;4.42;100.00;67272.72;4994045;28;20121;-76
2022/03/31 09:10:53;;;;;;;35.97;21.63;;;;;;;4.44;100.00;67269.13;4993671;28;20465;-76
2022/03/31 09:13:25;;;;;;;38.90;22.45;;;;;;;4.45;100.00;67275.53;4990235;28;20038;-76
2022/03/31 09:15:58;;;;;;;35.78;23.48;;;;;;;;;;4991183;28;20042;-76
2022/03/31 09:18:25;;;;;;;33.40;21.60;;;;;;;4.47;100.00;67273.09;4985638;28;20046;-76
2022/03/31 09:20:54;;;;;;;34.38;22.90;;;;;;;4.49;100.00;67274.78;4991156;28;20042;-77
2022/03/31 09:23:41;;;;;;;34.83;22.33;;;;;;;4.44;100.00;67269.69;4989545;28;20058;-77
2022/03/31 09:26:09;;;;;;;39.15;25.60;;;;;;;4.49;100.00;67275.34;4990170;28;20609;-77
2022/03/31 09:28:39;;;;;;;31.33;18.98;;;;;;;4.51;100.00;67279.66;4991259;28;20042;-76
2022/03/31 09:31:08;;;;;;;43.67;26.65;;;;;;;4.66;100.00;67296.03;4990668;28;20040;-77
2022/03/31 09:33:37;;;;;;;42.20;27.27;;;;;;;4.73;100.00;67296.03;4991936;28;20124;-77
2022/03/31 09:36:03;;;;;;;;;;;;;;;4.83;100.00;67315.22;4990834;28;20054;-77
2022/03/31 09:38:29;;;;;;;35.15;20.20;;;;;;;4.74;100.00;67303.00;4991220;28;20349;-77
2022/03/31 09:40:55;;;;;;;37.08;21.48;;;;;;;4.74;100.00;67305.63;4991759;28;20074;-77
2022/03/31 09:43:21;;;;;;;41.80;24.90;;;;;;;4.72;100.00;67308.66;4985479;28;20046;-76
2022/03/31 09:45:46;;;;;;;42.35;25.27;;;;;;;4.70;100.00;67298.50;4972534;28;20390;-77
2022/03/31 09:48:23;;;;;;;44.33;28.67;;;;;;;4.75;100.00;67304.13;4986680;28;20752;-76
2022/03/31 09:50:49;;;;;;;35.75;22.02;;;;;;;4.78;100.00;67306.41;4989919;28;20038;-77
2022/03/31 09:53:16;;;;;;;46.33;27.02;;;;;;;4.79;100.00;67312.81;4990570;28;20104;-76
2022/03/31 09:55:43;;;;;;;42.22;23.88;;;;;;;4.83;100.00;67317.88;4996650;28;20097;-77
2022/03/31 09:58:09;;;;;;;44.47;27.17;;;;;;;;;;4989264;28;20482;-77
2022/03/31 10:00:35;;;;;;;41.83;27.38;;;;;;;5.00;100.00;67333.88;4990584;28;20038;-76
2022/03/31 10:03:00;;;;;;;45.50;27.60;;;;;;;5.06;100.00;67345.91;4988642;28;20052;-77
2022/03/31 10:05:27;;;;;;;45.17;31.65;;;;;;;5.03;100.00;67334.63;4989443;28;20038;-76
2022/03/31 10:07:54;;;;;;;44.28;28.75;;;;;;;5.11;100.00;67343.66;4989044;28;20061;-77
2022/03/31 10:17:10;;;;;;;39.78;25.98;;;;;;;5.06;100.00;67338.00;4960613;28;20061;-76
2022/03/31 10:19:42;;;;;;;36.85;22.00;;;;;;;4.96;100.00;67329.91;4988965;28;20050;-77
2022/03/31 10:25:03;;;;;;;48.20;29.45;;;;;;;5.17;100.00;67353.06;4988724;28;20052;-77
2022/03/31 10:27:31;;;;;;;47.65;30.35;;;;;;;5.11;100.00;67346.28;4978255;28;20633;-76
2022/03/31 10:30:18;;;;;;;47.08;26.83;;;;;;;;;;4989418;28;20041;-76
2022/03/31 10:32:56;;;;;;;41.65;25.35;;;;;;;5.05;100.00;67344.25;4972514;28;20038;-76
2022/03/31 10:35:42;;;;;;;38.80;21.20;;;;;;;5.01;100.00;67331.81;4988772;28;20045;-76
2022/03/31 10:38:23;;;;;;;49.60;28.92;;;;;;;5.14;100.00;67349.69;4988733;28;20053;-76
2022/03/31 10:40:59;;;;;;;43.17;26.02;;;;;;;5.00;100.00;67339.16;4989760;28;20042;-76
2022/03/31 10:43:28;;;;;;;49.78;29.35;;;;;;;5.09;100.00;67344.06;4988984;28;20126;-76
2022/03/31 10:45:54;;;;;;;47.50;28.75;;;;;;;;;;4989092;28;20042;-77
2022/03/31 10:48:24;;;;;;;47.53;26.30;;;;;;;5.25;100.00;67364.19;4971487;28;20590;-76
2022/03/31 10:54:25;;;;;;;43.47;26.17;;;;;;;5.32;100.00;67366.25;4968863;28;20436;-77
2022/03/31 10:57:17;;;;;;;41.63;22.42;;;;;;;5.39;100.00;67379.44;4988124;28;20386;-77
2022/03/31 10:59:54;;;;;;;44.15;25.58;;;;;;;5.42;100.00;67378.13;4971282;28;20133;-76
2022/03/31 11:05:51;;;;;;;41.25;24.60;;;;;;;5.48;100.00;67386.41;4902076;29;20048;-77
2022/03/31 11:08:43;;;;;;;40.65;25.40;;;;;;;5.65;100.00;67406.19;4872902;29;21586;-76
2022/03/31 11:11:28;;;;;;;40.13;25.58;;;;;;;5.74;100.00;67413.16;4963898;28;20092;-76
2022/03/31 11:14:34;;;;;;;36.85;22.00;;;;;;;5.70;100.00;67408.63;4985069;28;20066;-77
2022/03/31 11:17:46;;;;;;;38.95;22.98;;;;;;;5.65;100.00;67408.25;4965565;28;20540;-77
2022/03/31 11:20:21;;;;;;;29.95;16.20;;;;;;;;;;4981070;28;20549;-77
2022/03/31 11:22:48;;;;;;;37.33;19.90;;;;;;;;;;4989174;28;20080;-77
2022/03/31 11:25:15;;;;;;;30.63;18.13;;;;;;;5.82;100.00;67416.34;4985620;28;20074;-77
2022/03/31 11:27:42;;;;;;;39.50;22.25;;;;;;;5.86;100.00;67426.72;4984243;28;20030;-77
2022/03/31 11:30:12;;;;;;;33.83;21.10;;;;;;;;;;4984576;28;20153;-76
2022/03/31 11:32:38;;;;;;;32.85;20.40;;;;;;;;;;4962071;28;20288;-77
2022/03/31 11:35:17;;;;;;;36.85;21.15;;;;;;;;;;4979089;28;20057;-77
2022/03/31 11:37:46;;;;;;;30.60;16.85;;;;;;;;;;4979932;28;20042;-76
2022/03/31 11:40:22;;;;;;;;;;;;;;;5.92;100.00;67435.00;4981968;28;20621;-77
2022/03/31 11:42:49;;;;;;;27.15;16.33;;;;;;;5.75;100.00;67413.72;4982118;28;19962;-75
2022/03/31 11:45:37;;;;;;;29.92;17.05;;;;;;;5.60;100.00;67397.88;4980828;28;20145;-77
2022/03/31 11:48:06;;;;;;;31.48;19.48;;;;;;;5.66;100.00;67404.66;4979211;28;20047;-77
2022/03/31 11:50:35;;;;;;;39.85;21.65;;;;;;;5.66;100.00;67407.31;4982726;28;20046;-76
2022/03/31 11:53:01;;;;;;;28.65;16.73;;;;;;;5.64;100.00;67404.50;4983879;28;20048;-77
2022/03/31 11:55:27;;;;;;;32.88;17.88;;;;;;;;;;4987642;28;20046;-77
2022/03/31 11:57:58;;;;;;;35.28;22.25;;;;;;;5.77;100.00;67418.63;4970099;28;20437;-77
2022/03/31 12:00:27;;;;;;;35.28;19.98;;;;;;;5.83;100.00;67422.75;4985637;28;20119;-76